Almena, Kansas
Current Conditions -  °F | °C
As of 6:53 PM on Monday 20 Oct 2014 (Local Time) from KHLC Reporting Station
Clear Clear  
Wind Chill: 68°   Ceiling: Unl
Heat Index: 68°   Visibility: 10mi
Dew Point: 40°   Wind: 5mph
Humidity: 36%   Direction: 110°ESE
Pressure: 30.07"   Gusts: NA
Location:  39.89°N, 99.71°W
Report Text: KHLC 202353Z AUTO 11004KT 10SM CLR 20/04 A3007 RMK AO2 SLP178 T02000044 10267 20200 56001
Loading
Personal Weather Stations






























Interactive Weather Map
Tropical Storm Tracking
New forecast layout! Learn more

10-Day Weather Forecast

Advertisements
Track Severe Weather on mobile